sensor_id;sensor_type;location;lat;lon;timestamp;P1;durP1;ratioP1;P2;durP2;ratioP2
59374;SDS011;45172;55.006;73.460;2023-09-19T00:01:41;41.45;;;12.15;;
59374;SDS011;45172;55.006;73.460;2023-09-19T00:04:07;25.60;;;11.77;;
59374;SDS011;45172;55.006;73.460;2023-09-19T00:06:37;27.85;;;11.98;;
59374;SDS011;45172;55.006;73.460;2023-09-19T00:09:09;27.73;;;10.25;;
59374;SDS011;45172;55.006;73.460;2023-09-19T00:11:37;30.27;;;11.02;;
59374;SDS011;45172;55.006;73.460;2023-09-19T00:14:20;39.67;;;12.02;;
59374;SDS011;45172;55.006;73.460;2023-09-19T00:17:00;26.20;;;9.73;;
59374;SDS011;45172;55.006;73.460;2023-09-19T00:20:24;27.25;;;11.10;;
59374;SDS011;45172;55.006;73.460;2023-09-19T00:22:50;27.08;;;11.95;;
59374;SDS011;45172;55.006;73.460;2023-09-19T00:25:20;159.23;;;61.97;;
59374;SDS011;45172;55.006;73.460;2023-09-19T00:27:51;79.05;;;28.15;;
59374;SDS011;45172;55.006;73.460;2023-09-19T00:33:44;43.25;;;15.55;;
59374;SDS011;45172;55.006;73.460;2023-09-19T00:36:37;45.85;;;20.63;;
59374;SDS011;45172;55.006;73.460;2023-09-19T00:39:06;41.40;;;15.50;;
59374;SDS011;45172;55.006;73.460;2023-09-19T00:41:34;54.25;;;31.83;;
59374;SDS011;45172;55.006;73.460;2023-09-19T00:44:04;44.50;;;15.75;;
59374;SDS011;45172;55.006;73.460;2023-09-19T00:46:30;35.97;;;13.80;;
59374;SDS011;45172;55.006;73.460;2023-09-19T00:48:58;36.67;;;13.88;;
59374;SDS011;45172;55.006;73.460;2023-09-19T00:51:25;35.83;;;14.30;;
59374;SDS011;45172;55.006;73.460;2023-09-19T00:53:52;51.33;;;21.45;;
59374;SDS011;45172;55.006;73.460;2023-09-19T00:56:19;34.95;;;16.08;;
59374;SDS011;45172;55.006;73.460;2023-09-19T00:58:45;48.13;;;17.27;;
59374;SDS011;45172;55.006;73.460;2023-09-19T01:01:13;47.33;;;17.67;;
59374;SDS011;45172;55.006;73.460;2023-09-19T01:03:43;35.63;;;14.90;;
59374;SDS011;45172;55.006;73.460;2023-09-19T01:06:18;56.28;;;18.70;;
59374;SDS011;45172;55.006;73.460;2023-09-19T01:08:48;76.13;;;30.00;;
59374;SDS011;45172;55.006;73.460;2023-09-19T01:20:08;51.83;;;20.73;;
59374;SDS011;45172;55.006;73.460;2023-09-19T01:32:19;49.65;;;16.13;;
59374;SDS011;45172;55.006;73.460;2023-09-19T01:35:12;35.40;;;13.50;;
59374;SDS011;45172;55.006;73.460;2023-09-19T01:37:47;43.28;;;15.43;;
59374;SDS011;45172;55.006;73.460;2023-09-19T01:40:18;32.25;;;13.55;;
59374;SDS011;45172;55.006;73.460;2023-09-19T01:46:13;36.58;;;13.73;;
59374;SDS011;45172;55.006;73.460;2023-09-19T01:56:20;50.00;;;21.25;;
59374;SDS011;45172;55.006;73.460;2023-09-19T01:59:04;48.10;;;24.05;;
59374;SDS011;45172;55.006;73.460;2023-09-19T02:09:29;44.75;;;17.25;;
59374;SDS011;45172;55.006;73.460;2023-09-19T02:12:35;52.00;;;19.80;;
59374;SDS011;45172;55.006;73.460;2023-09-19T02:16:03;42.13;;;18.58;;
59374;SDS011;45172;55.006;73.460;2023-09-19T02:19:02;57.50;;;25.10;;
59374;SDS011;45172;55.006;73.460;2023-09-19T02:21:59;60.33;;;21.05;;
59374;SDS011;45172;55.006;73.460;2023-09-19T02:33:03;46.45;;;14.43;;
59374;SDS011;45172;55.006;73.460;2023-09-19T02:42:14;49.97;;;19.00;;
59374;SDS011;45172;55.006;73.460;2023-09-19T02:45:41;84.57;;;32.45;;
59374;SDS011;45172;55.006;73.460;2023-09-19T02:55:32;78.85;;;18.58;;
59374;SDS011;45172;55.006;73.460;2023-09-19T02:59:06;100.95;;;41.00;;
59374;SDS011;45172;55.006;73.460;2023-09-19T03:02:19;118.22;;;48.55;;
59374;SDS011;45172;55.006;73.460;2023-09-19T03:09:44;69.20;;;24.40;;
59374;SDS011;45172;55.006;73.460;2023-09-19T03:12:58;89.05;;;28.80;;
59374;SDS011;45172;55.006;73.460;2023-09-19T05:36:18;40.70;;;8.70;;
59374;SDS011;45172;55.006;73.460;2023-09-19T06:01:52;34.38;;;7.60;;
59374;SDS011;45172;55.006;73.460;2023-09-19T06:05:28;32.03;;;7.13;;
59374;SDS011;45172;55.006;73.460;2023-09-19T06:08:23;34.72;;;8.18;;
59374;SDS011;45172;55.006;73.460;2023-09-19T06:22:34;18.77;;;6.30;;
59374;SDS011;45172;55.006;73.460;2023-09-19T06:25:09;28.90;;;7.07;;
59374;SDS011;45172;55.006;73.460;2023-09-19T06:28:14;35.53;;;7.22;;
59374;SDS011;45172;55.006;73.460;2023-09-19T06:38:17;27.25;;;4.95;;
59374;SDS011;45172;55.006;73.460;2023-09-19T06:40:56;36.25;;;14.43;;
59374;SDS011;45172;55.006;73.460;2023-09-19T06:43:28;28.73;;;7.03;;
59374;SDS011;45172;55.006;73.460;2023-09-19T06:54:31;34.97;;;11.95;;
59374;SDS011;45172;55.006;73.460;2023-09-19T06:57:11;26.17;;;5.60;;
59374;SDS011;45172;55.006;73.460;2023-09-19T07:10:17;30.55;;;10.45;;
59374;SDS011;45172;55.006;73.460;2023-09-19T07:24:16;19.45;;;5.30;;
59374;SDS011;45172;55.006;73.460;2023-09-19T07:27:54;27.90;;;5.28;;
59374;SDS011;45172;55.006;73.460;2023-09-19T07:36:55;23.95;;;5.43;;
59374;SDS011;45172;55.006;73.460;2023-09-19T07:39:22;26.58;;;6.00;;
59374;SDS011;45172;55.006;73.460;2023-09-19T07:45:12;26.05;;;7.50;;
59374;SDS011;45172;55.006;73.460;2023-09-19T07:48:00;22.52;;;6.18;;
59374;SDS011;45172;55.006;73.460;2023-09-19T07:53:47;20.25;;;5.43;;
59374;SDS011;45172;55.006;73.460;2023-09-19T08:00:05;15.50;;;4.45;;
59374;SDS011;45172;55.006;73.460;2023-09-19T08:06:33;7.68;;;3.30;;
59374;SDS011;45172;55.006;73.460;2023-09-19T08:12:42;14.32;;;4.47;;
59374;SDS011;45172;55.006;73.460;2023-09-19T08:15:18;22.08;;;4.90;;
59374;SDS011;45172;55.006;73.460;2023-09-19T08:21:24;14.20;;;4.10;;
59374;SDS011;45172;55.006;73.460;2023-09-19T08:23:56;7.05;;;3.63;;
59374;SDS011;45172;55.006;73.460;2023-09-19T08:26:28;9.45;;;3.40;;
59374;SDS011;45172;55.006;73.460;2023-09-19T08:29:03;18.90;;;3.75;;
59374;SDS011;45172;55.006;73.460;2023-09-19T08:31:54;11.43;;;2.90;;
59374;SDS011;45172;55.006;73.460;2023-09-19T08:34:27;14.50;;;3.47;;
59374;SDS011;45172;55.006;73.460;2023-09-19T08:37:16;14.88;;;3.67;;
59374;SDS011;45172;55.006;73.460;2023-09-19T08:39:59;11.88;;;3.05;;
59374;SDS011;45172;55.006;73.460;2023-09-19T08:47:00;10.50;;;3.20;;
59374;SDS011;45172;55.006;73.460;2023-09-19T08:49:33;30.55;;;13.57;;
59374;SDS011;45172;55.006;73.460;2023-09-19T08:52:36;13.20;;;3.72;;
59374;SDS011;45172;55.006;73.460;2023-09-19T08:55:41;11.25;;;3.05;;
59374;SDS011;45172;55.006;73.460;2023-09-19T08:58:52;22.75;;;3.67;;
59374;SDS011;45172;55.006;73.460;2023-09-19T09:01:34;14.30;;;5.25;;
59374;SDS011;45172;55.006;73.460;2023-09-19T09:04:41;18.48;;;3.60;;
59374;SDS011;45172;55.006;73.460;2023-09-19T09:07:35;14.18;;;3.30;;
59374;SDS011;45172;55.006;73.460;2023-09-19T09:10:42;8.63;;;3.10;;
59374;SDS011;45172;55.006;73.460;2023-09-19T09:13:45;9.48;;;3.08;;
59374;SDS011;45172;55.006;73.460;2023-09-19T09:16:53;20.45;;;3.35;;
59374;SDS011;45172;55.006;73.460;2023-09-19T09:19:24;10.73;;;3.05;;
59374;SDS011;45172;55.006;73.460;2023-09-19T09:21:55;7.13;;;3.38;;
59374;SDS011;45172;55.006;73.460;2023-09-19T09:28:32;7.00;;;2.55;;
59374;SDS011;45172;55.006;73.460;2023-09-19T09:31:24;19.48;;;3.85;;
59374;SDS011;45172;55.006;73.460;2023-09-19T09:33:55;15.85;;;3.85;;
59374;SDS011;45172;55.006;73.460;2023-09-19T09:37:01;20.52;;;3.70;;
59374;SDS011;45172;55.006;73.460;2023-09-19T09:39:32;15.55;;;7.07;;
59374;SDS011;45172;55.006;73.460;2023-09-19T09:42:03;14.25;;;4.90;;
59374;SDS011;45172;55.006;73.460;2023-09-19T09:44:34;18.98;;;3.28;;
59374;SDS011;45172;55.006;73.460;2023-09-19T09:47:11;12.77;;;3.30;;
59374;SDS011;45172;55.006;73.460;2023-09-19T09:50:35;13.90;;;3.15;;
59374;SDS011;45172;55.006;73.460;2023-09-19T09:53:26;13.70;;;3.50;;
59374;SDS011;45172;55.006;73.460;2023-09-19T09:56:10;8.20;;;3.03;;
59374;SDS011;45172;55.006;73.460;2023-09-19T10:02:44;19.52;;;3.65;;
59374;SDS011;45172;55.006;73.460;2023-09-19T10:05:23;25.40;;;3.50;;
59374;SDS011;45172;55.006;73.460;2023-09-19T10:09:02;16.08;;;3.85;;
59374;SDS011;45172;55.006;73.460;2023-09-19T10:12:25;10.35;;;3.58;;
59374;SDS011;45172;55.006;73.460;2023-09-19T10:15:18;14.50;;;3.45;;
59374;SDS011;45172;55.006;73.460;2023-09-19T10:25:01;57.38;;;5.40;;
59374;SDS011;45172;55.006;73.460;2023-09-19T10:41:34;24.33;;;5.70;;
59374;SDS011;45172;55.006;73.460;2023-09-19T10:44:03;38.17;;;6.57;;
59374;SDS011;45172;55.006;73.460;2023-09-19T10:47:06;17.80;;;4.78;;
59374;SDS011;45172;55.006;73.460;2023-09-19T10:50:17;27.40;;;5.43;;
59374;SDS011;45172;55.006;73.460;2023-09-19T10:52:55;38.85;;;5.72;;
59374;SDS011;45172;55.006;73.460;2023-09-19T10:55:32;37.47;;;5.07;;
59374;SDS011;45172;55.006;73.460;2023-09-19T11:07:57;26.50;;;6.45;;
59374;SDS011;45172;55.006;73.460;2023-09-19T11:10:49;31.35;;;7.13;;
59374;SDS011;45172;55.006;73.460;2023-09-19T11:13:24;56.65;;;7.43;;
59374;SDS011;45172;55.006;73.460;2023-09-19T11:16:05;47.28;;;7.70;;
59374;SDS011;45172;55.006;73.460;2023-09-19T11:24:28;34.25;;;5.60;;
59374;SDS011;45172;55.006;73.460;2023-09-19T11:27:12;21.13;;;5.05;;
59374;SDS011;45172;55.006;73.460;2023-09-19T11:29:43;19.17;;;5.68;;
59374;SDS011;45172;55.006;73.460;2023-09-19T11:35:22;35.20;;;6.68;;
59374;SDS011;45172;55.006;73.460;2023-09-19T11:38:13;31.55;;;6.43;;
59374;SDS011;45172;55.006;73.460;2023-09-19T11:40:44;24.42;;;5.90;;
59374;SDS011;45172;55.006;73.460;2023-09-19T11:43:34;23.65;;;5.63;;
59374;SDS011;45172;55.006;73.460;2023-09-19T11:46:16;32.50;;;8.25;;
59374;SDS011;45172;55.006;73.460;2023-09-19T11:49:11;23.95;;;6.72;;
59374;SDS011;45172;55.006;73.460;2023-09-19T11:51:43;24.70;;;6.13;;
59374;SDS011;45172;55.006;73.460;2023-09-19T11:54:13;36.63;;;6.88;;
59374;SDS011;45172;55.006;73.460;2023-09-19T11:56:53;24.25;;;6.55;;
59374;SDS011;45172;55.006;73.460;2023-09-19T11:59:22;33.53;;;6.82;;
59374;SDS011;45172;55.006;73.460;2023-09-19T12:01:53;25.38;;;9.27;;
59374;SDS011;45172;55.006;73.460;2023-09-19T12:04:37;26.52;;;8.90;;
59374;SDS011;45172;55.006;73.460;2023-09-19T12:07:04;32.72;;;12.70;;
59374;SDS011;45172;55.006;73.460;2023-09-19T12:09:33;28.08;;;9.25;;
59374;SDS011;45172;55.006;73.460;2023-09-19T12:12:01;30.70;;;7.35;;
59374;SDS011;45172;55.006;73.460;2023-09-19T12:14:28;53.60;;;7.38;;
59374;SDS011;45172;55.006;73.460;2023-09-19T12:16:56;49.67;;;8.07;;
59374;SDS011;45172;55.006;73.460;2023-09-19T12:19:23;38.50;;;7.68;;
59374;SDS011;45172;55.006;73.460;2023-09-19T12:22:01;41.63;;;7.82;;
59374;SDS011;45172;55.006;73.460;2023-09-19T12:24:29;40.00;;;8.02;;
59374;SDS011;45172;55.006;73.460;2023-09-19T12:27:00;30.17;;;8.98;;
59374;SDS011;45172;55.006;73.460;2023-09-19T12:29:32;24.88;;;7.28;;
59374;SDS011;45172;55.006;73.460;2023-09-19T12:32:07;24.60;;;7.18;;
59374;SDS011;45172;55.006;73.460;2023-09-19T12:34:35;48.53;;;7.75;;
59374;SDS011;45172;55.006;73.460;2023-09-19T12:37:14;30.13;;;6.90;;
59374;SDS011;45172;55.006;73.460;2023-09-19T12:39:48;29.60;;;7.57;;
59374;SDS011;45172;55.006;73.460;2023-09-19T12:42:19;69.05;;;25.38;;
59374;SDS011;45172;55.006;73.460;2023-09-19T12:44:49;53.65;;;19.10;;
59374;SDS011;45172;55.006;73.460;2023-09-19T12:56:57;39.75;;;15.75;;
59374;SDS011;45172;55.006;73.460;2023-09-19T12:59:29;47.65;;;14.73;;
59374;SDS011;45172;55.006;73.460;2023-09-19T13:02:03;46.60;;;16.17;;
59374;SDS011;45172;55.006;73.460;2023-09-19T13:04:30;47.78;;;14.25;;
59374;SDS011;45172;55.006;73.460;2023-09-19T13:06:59;52.50;;;18.17;;
59374;SDS011;45172;55.006;73.460;2023-09-19T13:09:27;98.57;;;32.00;;
59374;SDS011;45172;55.006;73.460;2023-09-19T13:12:44;58.50;;;26.00;;
59374;SDS011;45172;55.006;73.460;2023-09-19T13:15:21;63.05;;;30.48;;
59374;SDS011;45172;55.006;73.460;2023-09-19T13:24:44;124.78;;;84.38;;
59374;SDS011;45172;55.006;73.460;2023-09-19T13:27:24;126.78;;;80.30;;
59374;SDS011;45172;55.006;73.460;2023-09-19T13:30:13;89.28;;;48.08;;
59374;SDS011;45172;55.006;73.460;2023-09-19T13:36:38;57.58;;;30.38;;
59374;SDS011;45172;55.006;73.460;2023-09-19T13:42:49;58.65;;;29.13;;
59374;SDS011;45172;55.006;73.460;2023-09-19T13:45:24;50.63;;;29.17;;
59374;SDS011;45172;55.006;73.460;2023-09-19T13:47:52;61.65;;;31.02;;
59374;SDS011;45172;55.006;73.460;2023-09-19T13:50:20;69.18;;;34.13;;
59374;SDS011;45172;55.006;73.460;2023-09-19T13:52:57;93.57;;;34.40;;
59374;SDS011;45172;55.006;73.460;2023-09-19T13:55:46;75.97;;;35.55;;
59374;SDS011;45172;55.006;73.460;2023-09-19T13:58:42;60.22;;;35.75;;
59374;SDS011;45172;55.006;73.460;2023-09-19T14:01:10;76.80;;;36.75;;
59374;SDS011;45172;55.006;73.460;2023-09-19T14:03:40;112.25;;;67.57;;
59374;SDS011;45172;55.006;73.460;2023-09-19T14:06:18;84.72;;;45.95;;
59374;SDS011;45172;55.006;73.460;2023-09-19T14:09:04;66.40;;;37.80;;
59374;SDS011;45172;55.006;73.460;2023-09-19T14:11:33;76.80;;;39.33;;
59374;SDS011;45172;55.006;73.460;2023-09-19T14:14:03;73.32;;;38.03;;
59374;SDS011;45172;55.006;73.460;2023-09-19T14:16:30;76.88;;;39.67;;
59374;SDS011;45172;55.006;73.460;2023-09-19T14:18:57;74.03;;;41.28;;
59374;SDS011;45172;55.006;73.460;2023-09-19T14:21:23;87.78;;;41.17;;
59374;SDS011;45172;55.006;73.460;2023-09-19T14:23:50;86.03;;;42.67;;
59374;SDS011;45172;55.006;73.460;2023-09-19T14:26:18;95.25;;;43.10;;
59374;SDS011;45172;55.006;73.460;2023-09-19T14:28:44;105.25;;;41.83;;
59374;SDS011;45172;55.006;73.460;2023-09-19T14:31:11;89.38;;;42.88;;
59374;SDS011;45172;55.006;73.460;2023-09-19T14:33:38;83.95;;;43.35;;
59374;SDS011;45172;55.006;73.460;2023-09-19T14:36:05;94.32;;;41.60;;
59374;SDS011;45172;55.006;73.460;2023-09-19T14:38:33;125.30;;;45.03;;
59374;SDS011;45172;55.006;73.460;2023-09-19T14:40:59;119.05;;;43.47;;
59374;SDS011;45172;55.006;73.460;2023-09-19T14:43:30;120.07;;;48.20;;
59374;SDS011;45172;55.006;73.460;2023-09-19T14:48:30;104.18;;;51.17;;
59374;SDS011;45172;55.006;73.460;2023-09-19T14:51:01;113.45;;;50.03;;
59374;SDS011;45172;55.006;73.460;2023-09-19T14:53:28;101.32;;;47.83;;
59374;SDS011;45172;55.006;73.460;2023-09-19T14:55:55;136.60;;;56.15;;
59374;SDS011;45172;55.006;73.460;2023-09-19T14:58:21;134.30;;;60.97;;
59374;SDS011;45172;55.006;73.460;2023-09-19T15:00:47;119.97;;;58.20;;
59374;SDS011;45172;55.006;73.460;2023-09-19T15:03:15;198.50;;;127.82;;
59374;SDS011;45172;55.006;73.460;2023-09-19T15:05:45;159.55;;;90.63;;
59374;SDS011;45172;55.006;73.460;2023-09-19T15:08:16;154.48;;;86.88;;
59374;SDS011;45172;55.006;73.460;2023-09-19T15:10:51;164.35;;;92.50;;
59374;SDS011;45172;55.006;73.460;2023-09-19T15:13:29;161.43;;;92.15;;
59374;SDS011;45172;55.006;73.460;2023-09-19T15:16:06;177.90;;;100.85;;
59374;SDS011;45172;55.006;73.460;2023-09-19T15:18:36;163.57;;;96.05;;
59374;SDS011;45172;55.006;73.460;2023-09-19T15:21:09;162.95;;;97.68;;
59374;SDS011;45172;55.006;73.460;2023-09-19T15:23:42;195.00;;;109.13;;
59374;SDS011;45172;55.006;73.460;2023-09-19T15:26:11;180.18;;;102.80;;
59374;SDS011;45172;55.006;73.460;2023-09-19T15:28:43;185.70;;;109.20;;
59374;SDS011;45172;55.006;73.460;2023-09-19T15:31:15;179.98;;;97.22;;
59374;SDS011;45172;55.006;73.460;2023-09-19T15:33:41;189.73;;;98.20;;
59374;SDS011;45172;55.006;73.460;2023-09-19T15:36:12;159.15;;;95.80;;
59374;SDS011;45172;55.006;73.460;2023-09-19T15:39:04;120.60;;;40.10;;
59374;SDS011;45172;55.006;73.460;2023-09-19T15:41:34;146.98;;;82.85;;
59374;SDS011;45172;55.006;73.460;2023-09-19T15:44:12;162.55;;;81.93;;
59374;SDS011;45172;55.006;73.460;2023-09-19T15:46:43;141.18;;;78.93;;
59374;SDS011;45172;55.006;73.460;2023-09-19T15:49:16;141.20;;;77.10;;
59374;SDS011;45172;55.006;73.460;2023-09-19T15:51:50;143.30;;;76.40;;
59374;SDS011;45172;55.006;73.460;2023-09-19T15:54:21;105.32;;;35.42;;
59374;SDS011;45172;55.006;73.460;2023-09-19T15:56:50;163.88;;;81.65;;
59374;SDS011;45172;55.006;73.460;2023-09-19T15:59:18;148.68;;;81.13;;
59374;SDS011;45172;55.006;73.460;2023-09-19T16:01:49;155.57;;;84.05;;
59374;SDS011;45172;55.006;73.460;2023-09-19T16:04:18;139.75;;;79.90;;
59374;SDS011;45172;55.006;73.460;2023-09-19T16:06:55;142.73;;;80.47;;
59374;SDS011;45172;55.006;73.460;2023-09-19T16:09:38;85.72;;;36.17;;
59374;SDS011;45172;55.006;73.460;2023-09-19T16:12:11;133.38;;;79.50;;
59374;SDS011;45172;55.006;73.460;2023-09-19T16:14:43;137.50;;;77.60;;
59374;SDS011;45172;55.006;73.460;2023-09-19T16:17:16;133.07;;;73.90;;
59374;SDS011;45172;55.006;73.460;2023-09-19T16:20:02;99.80;;;36.13;;
59374;SDS011;45172;55.006;73.460;2023-09-19T16:22:53;133.27;;;73.00;;
59374;SDS011;45172;55.006;73.460;2023-09-19T16:25:19;134.30;;;75.63;;
59374;SDS011;45172;55.006;73.460;2023-09-19T16:27:45;152.23;;;87.45;;
59374;SDS011;45172;55.006;73.460;2023-09-19T16:30:12;159.20;;;94.53;;
59374;SDS011;45172;55.006;73.460;2023-09-19T16:32:43;164.23;;;90.75;;
59374;SDS011;45172;55.006;73.460;2023-09-19T16:35:09;165.75;;;96.93;;
59374;SDS011;45172;55.006;73.460;2023-09-19T16:37:36;156.52;;;94.32;;
59374;SDS011;45172;55.006;73.460;2023-09-19T16:40:03;161.65;;;98.10;;
59374;SDS011;45172;55.006;73.460;2023-09-19T16:42:31;114.35;;;43.03;;
59374;SDS011;45172;55.006;73.460;2023-09-19T16:44:58;115.03;;;42.60;;
59374;SDS011;45172;55.006;73.460;2023-09-19T16:47:26;123.18;;;47.00;;
59374;SDS011;45172;55.006;73.460;2023-09-19T16:49:55;152.98;;;93.18;;
59374;SDS011;45172;55.006;73.460;2023-09-19T16:52:29;134.15;;;81.63;;
59374;SDS011;45172;55.006;73.460;2023-09-19T16:55:05;112.35;;;44.15;;
59374;SDS011;45172;55.006;73.460;2023-09-19T16:57:37;118.57;;;70.85;;
59374;SDS011;45172;55.006;73.460;2023-09-19T17:00:11;100.87;;;57.70;;
59374;SDS011;45172;55.006;73.460;2023-09-19T17:02:46;81.03;;;32.05;;
59374;SDS011;45172;55.006;73.460;2023-09-19T17:05:13;120.13;;;70.75;;
59374;SDS011;45172;55.006;73.460;2023-09-19T17:07:41;110.88;;;65.45;;
59374;SDS011;45172;55.006;73.460;2023-09-19T17:10:08;97.85;;;36.38;;
59374;SDS011;45172;55.006;73.460;2023-09-19T17:12:34;104.57;;;36.95;;
59374;SDS011;45172;55.006;73.460;2023-09-19T17:15:02;93.60;;;35.75;;
59374;SDS011;45172;55.006;73.460;2023-09-19T17:17:28;110.53;;;64.13;;
59374;SDS011;45172;55.006;73.460;2023-09-19T17:19:56;114.30;;;64.45;;
59374;SDS011;45172;55.006;73.460;2023-09-19T17:22:23;95.03;;;33.58;;
59374;SDS011;45172;55.006;73.460;2023-09-19T17:24:48;81.22;;;32.42;;
59374;SDS011;45172;55.006;73.460;2023-09-19T17:27:15;104.72;;;62.20;;
59374;SDS011;45172;55.006;73.460;2023-09-19T17:29:41;116.07;;;65.38;;
59374;SDS011;45172;55.006;73.460;2023-09-19T17:32:07;121.75;;;67.15;;
59374;SDS011;45172;55.006;73.460;2023-09-19T17:34:33;86.88;;;32.83;;
59374;SDS011;45172;55.006;73.460;2023-09-19T17:37:00;135.95;;;76.70;;
59374;SDS011;45172;55.006;73.460;2023-09-19T17:39:26;117.53;;;69.90;;
59374;SDS011;45172;55.006;73.460;2023-09-19T17:41:53;125.90;;;71.78;;
59374;SDS011;45172;55.006;73.460;2023-09-19T17:44:19;93.38;;;34.40;;
59374;SDS011;45172;55.006;73.460;2023-09-19T17:46:47;113.57;;;67.97;;
59374;SDS011;45172;55.006;73.460;2023-09-19T17:49:14;110.78;;;66.40;;
59374;SDS011;45172;55.006;73.460;2023-09-19T17:51:41;108.78;;;61.65;;
59374;SDS011;45172;55.006;73.460;2023-09-19T17:54:07;74.72;;;30.40;;
59374;SDS011;45172;55.006;73.460;2023-09-19T17:56:33;69.13;;;28.52;;
59374;SDS011;45172;55.006;73.460;2023-09-19T17:59:01;76.78;;;30.35;;
59374;SDS011;45172;55.006;73.460;2023-09-19T18:01:27;76.30;;;31.15;;
59374;SDS011;45172;55.006;73.460;2023-09-19T18:03:55;103.85;;;59.35;;
59374;SDS011;45172;55.006;73.460;2023-09-19T18:06:25;76.82;;;30.88;;
59374;SDS011;45172;55.006;73.460;2023-09-19T18:08:52;112.05;;;60.97;;
59374;SDS011;45172;55.006;73.460;2023-09-19T18:11:18;63.83;;;30.17;;
59374;SDS011;45172;55.006;73.460;2023-09-19T18:13:46;82.05;;;32.88;;
59374;SDS011;45172;55.006;73.460;2023-09-19T18:16:14;96.55;;;36.05;;
59374;SDS011;45172;55.006;73.460;2023-09-19T18:18:42;127.10;;;81.55;;
59374;SDS011;45172;55.006;73.460;2023-09-19T18:21:11;117.95;;;53.95;;
59374;SDS011;45172;55.006;73.460;2023-09-19T18:23:38;148.63;;;92.57;;
59374;SDS011;45172;55.006;73.460;2023-09-19T18:26:05;100.20;;;39.17;;
59374;SDS011;45172;55.006;73.460;2023-09-19T18:28:41;130.30;;;83.32;;
59374;SDS011;45172;55.006;73.460;2023-09-19T18:31:09;143.18;;;84.85;;
59374;SDS011;45172;55.006;73.460;2023-09-19T18:33:35;116.72;;;40.15;;
59374;SDS011;45172;55.006;73.460;2023-09-19T18:36:14;139.35;;;84.78;;
59374;SDS011;45172;55.006;73.460;2023-09-19T18:39:25;102.38;;;37.88;;
59374;SDS011;45172;55.006;73.460;2023-09-19T18:42:06;140.00;;;88.57;;
59374;SDS011;45172;55.006;73.460;2023-09-19T18:45:08;108.50;;;40.92;;
59374;SDS011;45172;55.006;73.460;2023-09-19T18:47:39;138.02;;;83.30;;
59374;SDS011;45172;55.006;73.460;2023-09-19T18:50:10;88.68;;;38.42;;
59374;SDS011;45172;55.006;73.460;2023-09-19T18:52:39;91.25;;;37.83;;
59374;SDS011;45172;55.006;73.460;2023-09-19T18:55:33;97.97;;;38.53;;
59374;SDS011;45172;55.006;73.460;2023-09-19T18:58:04;129.40;;;79.13;;
59374;SDS011;45172;55.006;73.460;2023-09-19T19:01:20;88.38;;;35.85;;
59374;SDS011;45172;55.006;73.460;2023-09-19T19:06:22;129.73;;;79.65;;
59374;SDS011;45172;55.006;73.460;2023-09-19T19:08:59;117.60;;;72.10;;
59374;SDS011;45172;55.006;73.460;2023-09-19T19:11:34;121.75;;;73.70;;
59374;SDS011;45172;55.006;73.460;2023-09-19T19:14:04;82.60;;;34.00;;
59374;SDS011;45172;55.006;73.460;2023-09-19T19:16:31;75.25;;;34.08;;
59374;SDS011;45172;55.006;73.460;2023-09-19T19:19:25;125.45;;;71.78;;
59374;SDS011;45172;55.006;73.460;2023-09-19T19:22:01;80.10;;;35.60;;
59374;SDS011;45172;55.006;73.460;2023-09-19T19:24:28;110.07;;;66.97;;
59374;SDS011;45172;55.006;73.460;2023-09-19T19:26:57;87.88;;;32.60;;
59374;SDS011;45172;55.006;73.460;2023-09-19T19:29:28;105.93;;;64.78;;
59374;SDS011;45172;55.006;73.460;2023-09-19T19:31:57;96.25;;;33.28;;
59374;SDS011;45172;55.006;73.460;2023-09-19T19:34:46;72.22;;;29.25;;
59374;SDS011;45172;55.006;73.460;2023-09-19T19:37:26;68.80;;;29.23;;
59374;SDS011;45172;55.006;73.460;2023-09-19T19:40:02;96.78;;;59.45;;
59374;SDS011;45172;55.006;73.460;2023-09-19T19:42:41;65.00;;;28.70;;
59374;SDS011;45172;55.006;73.460;2023-09-19T19:45:15;65.30;;;29.88;;
59374;SDS011;45172;55.006;73.460;2023-09-19T19:47:57;97.07;;;59.60;;
59374;SDS011;45172;55.006;73.460;2023-09-19T19:50:37;62.20;;;28.15;;
59374;SDS011;45172;55.006;73.460;2023-09-19T19:53:11;95.25;;;58.80;;
59374;SDS011;45172;55.006;73.460;2023-09-19T19:55:53;80.45;;;30.38;;
59374;SDS011;45172;55.006;73.460;2023-09-19T19:58:27;63.83;;;28.90;;
59374;SDS011;45172;55.006;73.460;2023-09-19T20:01:02;111.07;;;65.07;;
59374;SDS011;45172;55.006;73.460;2023-09-19T20:03:39;106.22;;;61.00;;
59374;SDS011;45172;55.006;73.460;2023-09-19T20:06:14;110.53;;;63.90;;
59374;SDS011;45172;55.006;73.460;2023-09-19T20:09:43;91.65;;;57.33;;
59374;SDS011;45172;55.006;73.460;2023-09-19T20:12:14;55.97;;;26.63;;
59374;SDS011;45172;55.006;73.460;2023-09-19T20:14:44;95.35;;;55.08;;
59374;SDS011;45172;55.006;73.460;2023-09-19T20:17:25;64.63;;;25.50;;
59374;SDS011;45172;55.006;73.460;2023-09-19T20:19:53;91.40;;;51.10;;
59374;SDS011;45172;55.006;73.460;2023-09-19T20:22:28;67.03;;;25.38;;
59374;SDS011;45172;55.006;73.460;2023-09-19T20:24:56;58.60;;;24.58;;
59374;SDS011;45172;55.006;73.460;2023-09-19T20:27:28;84.60;;;45.83;;
59374;SDS011;45172;55.006;73.460;2023-09-19T20:29:57;51.83;;;22.35;;
59374;SDS011;45172;55.006;73.460;2023-09-19T20:32:23;55.35;;;22.00;;
59374;SDS011;45172;55.006;73.460;2023-09-19T20:37:28;67.78;;;40.22;;
59374;SDS011;45172;55.006;73.460;2023-09-19T20:40:01;68.18;;;38.95;;
59374;SDS011;45172;55.006;73.460;2023-09-19T20:42:29;64.15;;;38.72;;
59374;SDS011;45172;55.006;73.460;2023-09-19T20:44:59;41.10;;;17.23;;
59374;SDS011;45172;55.006;73.460;2023-09-19T20:47:27;43.08;;;16.65;;
59374;SDS011;45172;55.006;73.460;2023-09-19T20:49:57;59.92;;;34.10;;
59374;SDS011;45172;55.006;73.460;2023-09-19T20:52:24;37.75;;;16.77;;
59374;SDS011;45172;55.006;73.460;2023-09-19T20:54:53;37.58;;;15.52;;
59374;SDS011;45172;55.006;73.460;2023-09-19T20:57:19;51.92;;;29.80;;
59374;SDS011;45172;55.006;73.460;2023-09-19T20:59:50;53.88;;;31.33;;
59374;SDS011;45172;55.006;73.460;2023-09-19T21:02:18;37.10;;;13.93;;
59374;SDS011;45172;55.006;73.460;2023-09-19T21:04:46;32.53;;;12.55;;
59374;SDS011;45172;55.006;73.460;2023-09-19T21:07:27;38.80;;;13.15;;
59374;SDS011;45172;55.006;73.460;2023-09-19T21:09:57;36.58;;;13.15;;
59374;SDS011;45172;55.006;73.460;2023-09-19T21:12:27;44.05;;;25.05;;
59374;SDS011;45172;55.006;73.460;2023-09-19T21:14:53;47.45;;;26.25;;
59374;SDS011;45172;55.006;73.460;2023-09-19T21:17:22;45.53;;;25.33;;
59374;SDS011;45172;55.006;73.460;2023-09-19T21:19:50;25.08;;;11.55;;
59374;SDS011;45172;55.006;73.460;2023-09-19T21:22:21;50.28;;;27.23;;
59374;SDS011;45172;55.006;73.460;2023-09-19T21:24:48;30.85;;;12.95;;
59374;SDS011;45172;55.006;73.460;2023-09-19T21:27:20;43.47;;;27.10;;
59374;SDS011;45172;55.006;73.460;2023-09-19T21:29:58;29.48;;;11.70;;
59374;SDS011;45172;55.006;73.460;2023-09-19T21:32:30;46.08;;;27.48;;
59374;SDS011;45172;55.006;73.460;2023-09-19T21:35:02;24.67;;;11.40;;